createdAt,value
2019-03-25T00:01:20.695Z,95.30
2019-03-25T00:03:52.320Z,95.05
2019-03-25T00:06:23.927Z,94.54
2019-03-25T00:09:04.779Z,94.83
2019-03-25T00:11:28.559Z,94.28
2019-03-25T00:14:00.112Z,93.85
2019-03-25T00:16:31.650Z,94.48
2019-03-25T00:19:06.004Z,94.60
2019-03-25T00:21:37.611Z,94.84
2019-03-25T00:24:08.955Z,95.53
2019-03-25T00:26:40.556Z,95.48
2019-03-25T00:29:11.955Z,95.82
2019-03-25T00:31:43.322Z,95.57
2019-03-25T00:34:14.896Z,95.29
2019-03-25T00:36:46.483Z,95.60
2019-03-25T00:39:17.791Z,95.10
2019-03-25T00:41:49.311Z,94.69
2019-03-25T00:44:20.741Z,95.12
2019-03-25T00:46:52.328Z,95.02
2019-03-25T00:49:23.632Z,94.52
2019-03-25T00:51:55.252Z,94.93
2019-03-25T00:54:26.799Z,94.25
2019-03-25T00:56:58.171Z,94.29
2019-03-25T00:59:29.586Z,94.50
2019-03-25T01:02:00.874Z,94.61
2019-03-25T01:04:33.195Z,94.94
2019-03-25T01:07:04.855Z,95.55
2019-03-25T01:09:36.393Z,95.54
2019-03-25T01:12:07.955Z,95.22
2019-03-25T01:14:39.747Z,95.86
2019-03-25T01:17:11.602Z,95.30
2019-03-25T01:19:43.286Z,95.20
2019-03-25T01:22:14.568Z,95.55
2019-03-25T01:24:45.952Z,95.02
2019-03-25T01:27:17.250Z,94.60
2019-03-25T01:29:48.804Z,94.32
2019-03-25T01:32:20.091Z,94.52
2019-03-25T01:34:51.407Z,94.31
2019-03-25T01:37:22.718Z,94.03
2019-03-25T01:39:54.580Z,94.39
2019-03-25T01:42:26.537Z,94.71
2019-03-25T01:44:58.092Z,94.64
2019-03-25T01:47:29.863Z,94.74
2019-03-25T01:50:01.168Z,94.72
2019-03-25T01:52:32.705Z,95.31
2019-03-25T01:55:12.926Z,94.54
2019-03-25T01:57:37.395Z,94.01
2019-03-25T02:00:09.902Z,94.48
2019-03-25T02:02:41.483Z,94.50
2019-03-25T02:05:12.957Z,94.71
2019-03-25T02:07:44.247Z,94.35
2019-03-25T02:10:15.719Z,94.45
2019-03-25T02:12:47.027Z,93.92
2019-03-25T02:15:18.488Z,93.32
2019-03-25T02:17:50.061Z,93.24
2019-03-25T02:20:26.486Z,92.83
2019-03-25T02:22:54.897Z,93.08
2019-03-25T02:25:26.273Z,93.28
2019-03-25T02:27:57.568Z,93.41
2019-03-25T02:30:29.110Z,93.23
2019-03-25T02:33:00.425Z,92.82
2019-03-25T02:35:31.809Z,93.29
2019-03-25T02:38:03.329Z,94.01
2019-03-25T02:40:34.723Z,94.50
2019-03-25T02:43:06.031Z,94.13
2019-03-25T02:45:37.609Z,94.02
2019-03-25T02:48:08.911Z,93.57
2019-03-25T02:50:41.339Z,93.78
2019-03-25T02:53:13.838Z,93.34
2019-03-25T02:55:45.172Z,93.11
2019-03-25T02:58:16.850Z,93.95
2019-03-25T03:00:48.464Z,93.23
2019-03-25T03:03:20.728Z,93.45
2019-03-25T03:05:52.264Z,94.09
2019-03-25T03:08:24.537Z,93.92
2019-03-25T03:10:56.134Z,93.91
2019-03-25T03:13:27.672Z,93.83
2019-03-25T03:15:59.491Z,94.12
2019-03-25T03:18:31.304Z,93.45
2019-03-25T03:21:05.773Z,93.53
2019-03-25T03:23:37.360Z,93.33
2019-03-25T03:26:08.774Z,93.43
2019-03-25T03:28:40.136Z,93.21
2019-03-25T03:31:11.446Z,93.79
2019-03-25T03:33:43.106Z,93.71
2019-03-25T03:36:14.638Z,93.36
2019-03-25T03:38:46.213Z,93.44
2019-03-25T03:41:18.074Z,93.62
2019-03-25T03:43:49.618Z,93.80
2019-03-25T03:46:21.010Z,93.26
2019-03-25T03:48:52.614Z,93.12
2019-03-25T03:51:24.007Z,93.18
2019-03-25T03:53:56.646Z,93.64
2019-03-25T03:56:28.563Z,93.81
2019-03-25T03:59:00.769Z,93.89
2019-03-25T04:01:32.308Z,94.06
2019-03-25T04:04:03.608Z,94.26
2019-03-25T04:06:35.429Z,94.08
2019-03-25T04:09:07.312Z,94.27
2019-03-25T04:11:38.891Z,93.96
2019-03-25T04:14:10.267Z,93.65
2019-03-25T04:16:41.579Z,94.09
2019-03-25T04:19:12.882Z,94.24
2019-03-25T04:21:44.282Z,94.19
2019-03-25T04:24:15.840Z,94.07
2019-03-25T04:26:47.380Z,94.33
2019-03-25T04:29:19.887Z,94.55
2019-03-25T04:31:51.358Z,94.07
2019-03-25T04:34:22.728Z,93.53
2019-03-25T04:36:54.060Z,94.32
2019-03-25T04:39:25.908Z,93.81
2019-03-25T04:41:57.215Z,94.12
2019-03-25T04:44:28.816Z,94.83
2019-03-25T04:47:00.632Z,94.82
2019-03-25T04:49:32.425Z,94.62
2019-03-25T04:52:03.727Z,94.46
2019-03-25T04:54:35.109Z,94.35
2019-03-25T04:57:06.844Z,94.14
2019-03-25T04:59:38.138Z,93.05
2019-03-25T05:02:09.455Z,93.21
2019-03-25T05:04:41.024Z,92.99
2019-03-25T05:07:12.372Z,92.93
2019-03-25T05:09:43.947Z,92.44
2019-03-25T05:12:16.024Z,91.35
2019-03-25T05:14:47.320Z,91.55
2019-03-25T05:17:18.634Z,90.93
2019-03-25T05:19:49.940Z,91.11
2019-03-25T05:22:21.481Z,90.17
2019-03-25T05:24:53.604Z,93.69
2019-03-25T05:27:24.910Z,93.81
2019-03-25T05:29:56.556Z,90.87
2019-03-25T05:32:28.120Z,91.97
2019-03-25T05:34:59.407Z,86.79
2019-03-25T05:37:30.972Z,86.80
2019-03-25T05:40:02.944Z,85.34
2019-03-25T05:42:34.568Z,86.62
2019-03-25T05:45:06.159Z,85.81
2019-03-25T05:47:37.700Z,83.11
2019-03-25T05:50:09.457Z,83.17
2019-03-25T05:52:42.018Z,83.59
2019-03-25T05:55:13.396Z,83.31
2019-03-25T05:57:44.942Z,82.42
2019-03-25T06:00:17.591Z,78.87
2019-03-25T06:02:49.131Z,78.62
2019-03-25T06:05:20.419Z,78.37
2019-03-25T06:07:51.729Z,76.25
2019-03-25T06:10:23.156Z,76.63
2019-03-25T06:12:54.696Z,76.41
2019-03-25T06:15:26.574Z,75.17
2019-03-25T06:17:57.881Z,74.39
2019-03-25T06:20:29.182Z,74.69
2019-03-25T06:23:01.227Z,74.19
2019-03-25T06:25:32.595Z,73.88
2019-03-25T06:28:03.969Z,74.47
2019-03-25T06:30:35.348Z,74.93
2019-03-25T06:33:12.350Z,74.00
2019-03-25T06:35:40.348Z,74.00
2019-03-25T06:38:12.235Z,74.89
2019-03-25T06:40:43.604Z,75.63
2019-03-25T06:43:14.931Z,74.20
2019-03-25T06:45:46.469Z,73.49
2019-03-25T06:48:18.038Z,74.16
2019-03-25T06:50:49.340Z,73.78
2019-03-25T06:53:20.982Z,74.02
2019-03-25T06:55:52.287Z,73.69
2019-03-25T06:58:23.837Z,73.12
2019-03-25T07:00:55.227Z,73.47
2019-03-25T07:03:26.632Z,74.08
2019-03-25T07:05:57.960Z,73.38
2019-03-25T07:08:29.479Z,73.75
2019-03-25T07:11:01.161Z,73.68
2019-03-25T07:13:32.744Z,74.54
2019-03-25T07:16:04.067Z,71.54
2019-03-25T07:18:35.630Z,71.80
2019-03-25T07:21:07.173Z,70.39
2019-03-25T07:23:38.558Z,69.47
2019-03-25T07:26:10.117Z,71.25
2019-03-25T07:28:41.776Z,70.41
2019-03-25T07:31:13.387Z,69.73
2019-03-25T07:33:44.934Z,69.24
2019-03-25T07:36:16.841Z,69.18
2019-03-25T07:38:48.167Z,69.19
2019-03-25T07:41:19.745Z,70.53
2019-03-25T07:43:51.076Z,70.85
2019-03-25T07:46:22.882Z,70.61
2019-03-25T07:48:54.246Z,70.62
2019-03-25T07:51:25.780Z,71.14
2019-03-25T07:53:57.599Z,69.37
2019-03-25T07:56:28.915Z,70.31
2019-03-25T07:59:00.301Z,69.60
2019-03-25T08:01:31.839Z,70.84
2019-03-25T08:04:03.160Z,71.84
2019-03-25T08:06:34.449Z,70.67
2019-03-25T08:09:07.023Z,69.30
2019-03-25T08:11:38.811Z,71.41
2019-03-25T08:14:10.111Z,71.78
2019-03-25T08:16:41.634Z,71.57
2019-03-25T08:19:12.965Z,71.25
2019-03-25T08:21:44.619Z,67.97
2019-03-25T08:24:16.013Z,66.95
2019-03-25T08:26:47.651Z,68.23
2019-03-25T08:29:19.177Z,68.72
2019-03-25T08:31:51.024Z,69.33
2019-03-25T08:34:22.324Z,68.76
2019-03-25T08:36:53.717Z,69.38
2019-03-25T08:39:25.020Z,69.48
2019-03-25T08:41:56.632Z,69.49
2019-03-25T08:44:28.467Z,69.56
2019-03-25T08:47:00.057Z,70.16
2019-03-25T08:49:31.536Z,70.66
2019-03-25T08:52:03.380Z,70.67
2019-03-25T08:54:37.910Z,70.69
2019-03-25T08:57:09.741Z,70.93
2019-03-25T08:59:41.352Z,70.03
2019-03-25T09:02:12.899Z,71.65
2019-03-25T09:04:44.999Z,72.00
2019-03-25T09:07:16.912Z,72.65
2019-03-25T09:09:48.217Z,74.64
2019-03-25T09:12:19.543Z,75.67
2019-03-25T09:14:51.140Z,74.95
2019-03-25T09:17:22.692Z,75.16
2019-03-25T09:19:54.506Z,75.88
2019-03-25T09:22:26.186Z,75.55
2019-03-25T09:24:57.967Z,75.52
2019-03-25T09:27:29.416Z,75.68
2019-03-25T09:30:03.169Z,75.95
2019-03-25T09:32:34.857Z,75.07
2019-03-25T09:35:06.544Z,74.80
2019-03-25T09:37:38.193Z,73.15
2019-03-25T09:40:10.781Z,73.31
2019-03-25T09:42:42.317Z,73.03
2019-03-25T09:45:14.089Z,72.65
2019-03-25T09:47:45.475Z,71.91
2019-03-25T09:50:16.850Z,72.82
2019-03-25T09:52:48.379Z,72.82
2019-03-25T09:55:19.675Z,73.60
2019-03-25T09:57:50.981Z,72.96
2019-03-25T10:00:27.007Z,72.68
2019-03-25T10:02:58.611Z,72.27
2019-03-25T10:05:29.975Z,71.61
2019-03-25T10:08:01.709Z,70.97
2019-03-25T10:10:33.242Z,69.72
2019-03-25T10:13:04.859Z,66.98
2019-03-25T10:15:36.563Z,66.47
2019-03-25T10:18:08.171Z,64.09
2019-03-25T10:20:40.085Z,62.85
2019-03-25T10:23:11.691Z,60.99
2019-03-25T10:25:42.997Z,59.77
2019-03-25T10:28:14.560Z,60.54
2019-03-25T10:30:46.546Z,61.91
2019-03-25T10:33:17.934Z,61.63
2019-03-25T10:35:49.301Z,61.70
2019-03-25T10:38:20.690Z,61.26
2019-03-25T10:40:52.292Z,60.67
2019-03-25T10:43:23.629Z,61.08
2019-03-25T10:45:55.031Z,62.28
2019-03-25T10:48:26.425Z,61.42
2019-03-25T10:50:57.794Z,61.92
2019-03-25T10:53:29.093Z,61.79
2019-03-25T10:56:00.614Z,58.91
2019-03-25T10:58:31.924Z,55.72
2019-03-25T11:01:03.537Z,52.75
2019-03-25T11:03:34.932Z,52.81
2019-03-25T11:06:06.624Z,51.85
2019-03-25T11:08:38.011Z,50.43
2019-03-25T11:11:09.402Z,50.96
2019-03-25T11:13:40.715Z,49.67
2019-03-25T11:16:12.399Z,48.78
2019-03-25T11:18:43.979Z,47.63
2019-03-25T11:21:15.865Z,47.34
2019-03-25T11:24:05.690Z,47.35
2019-03-25T11:26:38.050Z,47.50
2019-03-25T11:29:09.531Z,47.74
2019-03-25T11:31:41.934Z,46.73
2019-03-25T11:34:13.540Z,47.29
2019-03-25T11:36:45.100Z,46.54
2019-03-25T11:39:17.380Z,47.44
2019-03-25T11:41:48.693Z,46.79
2019-03-25T11:44:20.165Z,47.81
2019-03-25T11:46:51.788Z,48.17
2019-03-25T11:49:23.333Z,48.50
2019-03-25T11:52:08.387Z,49.13
2019-03-25T11:54:39.686Z,49.49
2019-03-25T11:57:12.438Z,49.21
2019-03-25T11:59:44.052Z,47.96
2019-03-25T12:02:17.836Z,46.10
2019-03-25T12:04:48.737Z,45.15
2019-03-25T12:07:20.035Z,45.93
2019-03-25T12:09:52.168Z,43.95
2019-03-25T12:12:23.764Z,43.34
2019-03-25T12:14:55.086Z,44.25
2019-03-25T12:17:26.721Z,44.95
2019-03-25T12:19:58.982Z,47.18
2019-03-25T12:22:30.366Z,49.47
2019-03-25T12:25:01.759Z,51.71
2019-03-25T12:27:33.402Z,51.59
2019-03-25T12:30:05.333Z,51.97
2019-03-25T12:32:36.871Z,53.24
2019-03-25T12:35:08.530Z,52.45
2019-03-25T12:37:40.078Z,52.24
2019-03-25T12:40:11.615Z,52.63
2019-03-25T12:42:43.243Z,51.69
2019-03-25T12:45:15.623Z,51.78
2019-03-25T12:47:47.278Z,51.68
2019-03-25T12:50:18.756Z,50.95
2019-03-25T12:52:50.137Z,53.04
2019-03-25T12:55:21.563Z,59.77
2019-03-25T12:57:53.350Z,62.04
2019-03-25T13:00:44.048Z,64.56
2019-03-25T13:03:15.947Z,66.86
2019-03-25T13:05:47.342Z,67.15
2019-03-25T13:08:18.715Z,67.63
2019-03-25T13:10:50.666Z,68.63
2019-03-25T13:13:22.298Z,68.36
2019-03-25T13:15:54.391Z,66.28
2019-03-25T13:18:25.702Z,63.89
2019-03-25T13:20:57.306Z,60.85
2019-03-25T13:23:28.616Z,61.18
2019-03-25T13:26:00.237Z,61.82
2019-03-25T13:28:32.385Z,60.96
2019-03-25T13:31:03.670Z,61.32
2019-03-25T13:33:35.027Z,60.51
2019-03-25T13:36:06.964Z,59.10
2019-03-25T13:38:38.493Z,60.56
2019-03-25T13:41:10.028Z,61.87
2019-03-25T13:43:43.712Z,63.51
2019-03-25T13:46:14.394Z,63.55
2019-03-25T13:48:46.423Z,62.73
2019-03-25T13:51:18.680Z,60.94
2019-03-25T13:53:50.507Z,59.25
2019-03-25T13:56:22.384Z,59.13
2019-03-25T13:58:55.127Z,59.31
2019-03-25T14:01:26.900Z,60.76
2019-03-25T14:03:58.707Z,60.08
2019-03-25T14:06:30.013Z,60.37
2019-03-25T14:09:01.671Z,60.40
2019-03-25T14:11:34.581Z,60.11
2019-03-25T14:14:06.240Z,58.77
2019-03-25T14:16:37.536Z,57.62
2019-03-25T14:19:09.151Z,57.66
2019-03-25T14:21:41.006Z,59.21
2019-03-25T14:24:12.635Z,58.81
2019-03-25T14:26:44.159Z,58.08
2019-03-25T14:29:15.493Z,56.45
2019-03-25T14:31:47.342Z,55.23
2019-03-25T14:34:18.660Z,53.19
2019-03-25T14:36:50.348Z,51.63
2019-03-25T14:39:21.932Z,49.98
2019-03-25T14:41:53.232Z,51.20
2019-03-25T14:44:24.539Z,52.34
2019-03-25T14:46:56.073Z,53.54
2019-03-25T14:49:27.379Z,62.07
2019-03-25T14:51:58.748Z,74.24
2019-03-25T14:54:30.291Z,78.58
2019-03-25T14:57:01.670Z,83.37
2019-03-25T14:59:32.983Z,86.07
2019-03-25T15:02:04.356Z,87.63
2019-03-25T15:04:36.147Z,89.76
2019-03-25T15:07:08.107Z,89.20
2019-03-25T15:09:39.485Z,89.51
2019-03-25T15:12:10.791Z,90.17
2019-03-25T15:14:42.390Z,89.45
2019-03-25T15:17:13.682Z,87.67
2019-03-25T15:19:44.988Z,88.62
2019-03-25T15:22:16.577Z,86.75
2019-03-25T15:24:47.954Z,85.09
2019-03-25T15:27:19.483Z,84.36
2019-03-25T15:29:51.531Z,83.26
2019-03-25T15:32:23.040Z,82.17
2019-03-25T15:34:54.422Z,82.30
2019-03-25T15:37:25.715Z,81.63
2019-03-25T15:39:57.015Z,79.50
2019-03-25T15:42:28.308Z,81.13
2019-03-25T15:44:59.850Z,82.12
2019-03-25T15:47:31.508Z,82.26
2019-03-25T15:50:03.207Z,79.99
2019-03-25T15:52:34.566Z,78.93
2019-03-25T15:55:06.272Z,79.68
2019-03-25T15:57:39.853Z,78.12
2019-03-25T16:00:14.050Z,78.77
2019-03-25T16:02:45.655Z,78.54
2019-03-25T16:05:17.379Z,75.42
2019-03-25T16:07:48.814Z,77.98
2019-03-25T16:10:20.486Z,77.68
2019-03-25T16:12:52.183Z,78.43
2019-03-25T16:15:40.744Z,76.74
2019-03-25T16:18:31.766Z,75.35
2019-03-25T16:21:03.305Z,74.06
2019-03-25T16:23:34.976Z,75.74
2019-03-25T16:26:06.732Z,75.24
2019-03-25T16:28:38.490Z,73.52
2019-03-25T16:31:10.439Z,72.79
2019-03-25T16:33:41.809Z,73.67
2019-03-25T16:36:13.122Z,74.48
2019-03-25T16:38:44.622Z,74.96
2019-03-25T16:41:16.431Z,75.98
2019-03-25T16:43:47.942Z,75.88
2019-03-25T16:46:19.383Z,76.87
2019-03-25T16:48:50.705Z,75.42
2019-03-25T16:51:22.011Z,76.06
2019-03-25T16:53:53.302Z,77.29
2019-03-25T16:56:24.835Z,77.21
2019-03-25T16:58:56.136Z,79.02
2019-03-25T17:01:27.996Z,77.71
2019-03-25T17:03:59.287Z,78.35
2019-03-25T17:06:31.098Z,78.57
2019-03-25T17:09:02.835Z,78.68
2019-03-25T17:11:35.429Z,78.61
2019-03-25T17:14:07.043Z,77.75
2019-03-25T17:16:38.563Z,77.27
2019-03-25T17:19:10.246Z,77.14
2019-03-25T17:21:41.598Z,78.28
2019-03-25T17:24:14.241Z,78.56
2019-03-25T17:26:45.971Z,78.60
2019-03-25T17:29:17.598Z,79.85
2019-03-25T17:31:48.892Z,76.95
2019-03-25T17:34:20.554Z,78.39
2019-03-25T17:36:52.071Z,78.85
2019-03-25T17:39:24.101Z,78.72
2019-03-25T17:41:55.672Z,79.85
2019-03-25T17:44:27.304Z,81.25
2019-03-25T17:46:58.608Z,79.42
2019-03-25T17:49:29.898Z,78.73
2019-03-25T17:52:01.201Z,77.77
2019-03-25T17:54:32.911Z,77.97
2019-03-25T17:57:04.373Z,78.79
2019-03-25T17:59:35.714Z,78.57
2019-03-25T18:02:07.174Z,79.17
2019-03-25T18:04:38.462Z,80.69
2019-03-25T18:07:09.869Z,82.36
2019-03-25T18:09:41.167Z,85.35
2019-03-25T18:12:12.703Z,88.68
2019-03-25T18:14:45.220Z,91.04
2019-03-25T18:17:16.842Z,92.56
2019-03-25T18:19:48.378Z,93.60
2019-03-25T18:22:19.706Z,94.58
2019-03-25T18:24:51.315Z,96.16
2019-03-25T18:27:22.847Z,97.25
2019-03-25T18:29:54.446Z,97.58
2019-03-25T18:32:25.819Z,97.30
2019-03-25T18:34:57.496Z,97.12
2019-03-25T18:37:29.022Z,97.97
2019-03-25T18:40:00.548Z,98.08
2019-03-25T18:42:32.447Z,98.81
2019-03-25T18:45:04.127Z,99.56
2019-03-25T18:47:35.664Z,99.58
2019-03-25T18:50:07.393Z,100.00
2019-03-25T18:52:38.731Z,100.00
2019-03-25T18:55:10.330Z,100.00
2019-03-25T18:57:42.491Z,99.31
2019-03-25T19:00:20.524Z,100.00
2019-03-25T19:02:51.864Z,100.00
2019-03-25T19:05:23.545Z,99.86
2019-03-25T19:07:55.202Z,100.00
2019-03-25T19:10:29.908Z,100.00
2019-03-25T19:13:01.222Z,98.65
2019-03-25T19:15:33.038Z,98.84
2019-03-25T19:18:04.348Z,100.00
2019-03-25T19:20:36.101Z,99.69
2019-03-25T19:23:07.662Z,99.09
2019-03-25T19:25:39.565Z,96.93
2019-03-25T19:28:11.430Z,99.75
2019-03-25T19:30:42.740Z,100.00
2019-03-25T19:33:14.061Z,100.00
2019-03-25T19:35:45.665Z,100.00
2019-03-25T19:38:17.241Z,100.00
2019-03-25T19:40:48.656Z,100.00
2019-03-25T19:43:19.924Z,100.00
2019-03-25T19:45:51.463Z,100.00
2019-03-25T19:48:23.000Z,100.00
2019-03-25T19:50:54.386Z,100.00
2019-03-25T19:53:27.460Z,100.00
2019-03-25T19:55:59.086Z,100.00
2019-03-25T19:58:30.659Z,100.00
2019-03-25T20:01:02.036Z,100.00
2019-03-25T20:03:33.615Z,100.00
2019-03-25T20:06:05.030Z,100.00
2019-03-25T20:08:36.883Z,100.00
2019-03-25T20:11:08.490Z,100.00
2019-03-25T20:13:39.961Z,100.00
2019-03-25T20:16:11.730Z,100.00
2019-03-25T20:18:44.201Z,100.00
2019-03-25T20:21:15.711Z,100.00
2019-03-25T20:23:50.273Z,100.00
2019-03-25T20:26:20.853Z,100.00
2019-03-25T20:28:52.491Z,100.00
2019-03-25T20:31:24.088Z,100.00
2019-03-25T20:33:55.591Z,100.00
2019-03-25T20:36:27.106Z,100.00
2019-03-25T20:38:58.713Z,100.00
2019-03-25T20:41:30.352Z,100.00
2019-03-25T20:44:01.917Z,100.00
2019-03-25T20:46:33.553Z,100.00
2019-03-25T20:49:05.081Z,100.00
2019-03-25T20:51:36.432Z,100.00
2019-03-25T20:54:08.053Z,100.00
2019-03-25T20:56:39.683Z,100.00
2019-03-25T20:59:11.235Z,100.00
2019-03-25T21:01:42.511Z,100.00
2019-03-25T21:04:14.404Z,100.00
2019-03-25T21:06:45.714Z,100.00
2019-03-25T21:09:18.390Z,100.00
2019-03-25T21:11:50.038Z,100.00
2019-03-25T21:14:21.878Z,100.00
2019-03-25T21:16:53.417Z,100.00
2019-03-25T21:19:25.377Z,100.00
2019-03-25T21:21:56.718Z,100.00
2019-03-25T21:24:28.599Z,100.00
2019-03-25T21:27:00.037Z,100.00
2019-03-25T21:29:31.600Z,100.00
2019-03-25T21:32:02.971Z,100.00
2019-03-25T21:34:34.442Z,100.00
2019-03-25T21:37:06.042Z,100.00
2019-03-25T21:39:37.359Z,100.00
2019-03-25T21:42:08.869Z,100.00
2019-03-25T21:44:40.440Z,100.00
2019-03-25T21:47:11.844Z,100.00
2019-03-25T21:49:43.294Z,100.00
2019-03-25T21:52:15.332Z,100.00
2019-03-25T21:54:46.723Z,100.00
2019-03-25T21:57:18.238Z,100.00
2019-03-25T21:59:49.893Z,100.00
2019-03-25T22:02:21.502Z,100.00
2019-03-25T22:04:53.052Z,100.00
2019-03-25T22:07:24.593Z,100.00
2019-03-25T22:09:56.725Z,100.00
2019-03-25T22:12:28.251Z,100.00
2019-03-25T22:14:59.854Z,100.00
2019-03-25T22:17:31.469Z,100.00
2019-03-25T22:20:03.311Z,100.00
2019-03-25T22:22:34.691Z,100.00
2019-03-25T22:25:06.185Z,100.00
2019-03-25T22:27:37.661Z,100.00
2019-03-25T22:30:10.710Z,100.00
2019-03-25T22:32:41.988Z,100.00
2019-03-25T22:35:14.584Z,100.00
2019-03-25T22:37:46.111Z,100.00
2019-03-25T22:40:17.750Z,100.00
2019-03-25T22:42:49.545Z,100.00
2019-03-25T22:45:29.102Z,100.00
2019-03-25T22:48:00.554Z,100.00
2019-03-25T22:50:32.688Z,100.00
2019-03-25T22:53:04.139Z,100.00
2019-03-25T22:55:35.491Z,100.00
2019-03-25T22:58:07.403Z,100.00
2019-03-25T23:00:44.989Z,100.00
2019-03-25T23:03:16.499Z,100.00
2019-03-25T23:05:48.135Z,100.00
2019-03-25T23:08:20.085Z,100.00
2019-03-25T23:10:51.687Z,100.00
2019-03-25T23:13:23.214Z,100.00
2019-03-25T23:15:54.827Z,100.00
2019-03-25T23:18:26.140Z,100.00
2019-03-25T23:20:57.754Z,100.00
2019-03-25T23:23:29.117Z,100.00
2019-03-25T23:26:00.433Z,100.00
2019-03-25T23:28:32.350Z,100.00
2019-03-25T23:31:04.023Z,100.00
2019-03-25T23:33:35.781Z,100.00
2019-03-25T23:36:07.404Z,100.00
2019-03-25T23:38:38.974Z,100.00
2019-03-25T23:41:10.355Z,100.00
2019-03-25T23:43:42.196Z,100.00
2019-03-25T23:46:13.877Z,100.00
2019-03-25T23:48:45.532Z,100.00
2019-03-25T23:51:17.144Z,100.00
2019-03-25T23:53:48.951Z,100.00
2019-03-25T23:56:20.348Z,100.00
2019-03-25T23:58:52.170Z,100.00
